Rezultatele cursei (Traseu: Singapore | Sezonul: 19 | Cursa: 14 | Grupa: Elite)

Sezonul:  Cursa:

Selectați altă grupă:

Poz Progres Pneuri Naț Numele managerului Timpul cursei Tururi Opriri Cel mai bun tur Viteza medie Cel mai bun timp la standuri
01. +1 +1 Michelini   Toygun Senler1 1h29:20.668 61 2 1:26.380 207.58km/h 8.503s
02. -1 -1 Michelini   Jari Aareskoski3 + 3.407 61 3 1:25.842 207.45km/h 9.329s
03. Nicio schimbare ±0 Michelini   Edvinas Pranculevicius + 9.623 61 2 1:26.252 207.21km/h 11.532s
04. +2 +2 Michelini   Vladimir Islentiev2 + 27.316 61 2 1:26.542 206.53km/h 10.970s
05. -1 -1 Michelini   João Monteiro + 34.483 61 2 1:26.636 206.25km/h 13.943s
06. +3 +3 Michelini   Aleksej Sutkin + 36.762 61 2 1:26.613 206.16km/h 12.402s
07. +1 +1 Michelini   Nuno Vicente + 44.582 61 2 1:26.729 205.87km/h 12.691s
08. +3 +3 Michelini   Zdenek Hladik + 45.458 61 2 1:26.677 205.83km/h 14.443s
09. +1 +1 Michelini   Joan Centellas + 55.020 61 2 1:26.873 205.47km/h 12.383s
10. +4 +4 Michelini   Renato Svaiter + 59.594 61 2 1:26.782 205.30km/h 14.348s
11. +2 +2 Michelini   Wagner Souza + 1:22.360 61 2 1:27.309 204.44km/h 15.613s
12. -7 -7 Michelini   Jan Zaluski + 1:22.876 61 3 1:26.879 204.42km/h 13.598s
13. +3 +3 Michelini   Martynas Molneris + 1:23.581 61 2 1:27.444 204.39km/h 13.812s
14. +1 +1 Dunnolop   Daniele Ambroggi + 1:24.117 61 2 1:27.243 204.37km/h 14.376s
15. -3 -3 Michelini   Marek Marchewka + 1:24.968 61 2 1:27.244 204.34km/h 13.496s
16. +9 +9 Dunnolop   Leandro Sereno2 + 1:35.473 60 2 1:27.328 203.95km/h 9.801s
17. +3 +3 Michelini   Laila Britāle + 1:45.832 60 3 1:27.063 203.56km/h 11.340s
18. Nicio schimbare ±0 Michelini   Denis Grahov + 1:49.287 60 1 1:28.193 203.43km/h 15.117s
19. +4 +4 Dunnolop   Andrius Talandzevicius + 2:07.031 60 2 1:27.792 202.77km/h 13.823s
20. +2 +2 Dunnolop   Oli Jais + 2:14.104 60 3 1:27.764 202.51km/h 12.461s
21. -2 -2 Michelini   Lucas Secundo Abreu + 2:38.508 60 1 1:28.669 201.62km/h 24.978s
22. +6 +6 Dunnolop   Kostas Farsalinos + 5:33.746 58 1 1:31.677 195.41km/h 16.040s
23. +4 +4 Badyear   Michael Monaco + 5:33.848 58 1 1:31.258 195.41km/h 24.524s
24. +7 +7 Pipirelli   Mikko Heikkinen + 5:35.171 58 1 1:31.335 195.36km/h 15.922s
25. -1 -1 Badyear   Toni Söyrinki + 5:59.025 57 3 1:30.638 194.55km/h 15.071s
26. +8 +8 Pipirelli   Philipp Hartmann + 6:08.623 57 1 1:32.102 194.22km/h 18.855s
27. +5 +5 Pipirelli   Martynas Atkočius + 6:24.523 57 2 1:31.830 193.69km/h 17.749s
28. +7 +7 Michelini   Martin Rosina + 6:30.394 57 1 1:32.267 193.49km/h 14.814s
29. -12 -12 Michelini   Rimantas Sagatas + 6:46.118 57 1 1:31.312 192.96km/h 13.143s
30. -4 -4 Dunnolop   Gabriel Toma + 6:48.829 57 2 1:31.335 192.87km/h 19.156s
31. -1 -1 Pipirelli   Craig Templeman + 7:01.516 57 3 1:31.662 192.45km/h 20.491s
32. -3 -3 Badyear   Lee Ifans + 7:53.363 56 4 1:31.536 190.74km/h 19.904s
Abandonuri
33. +3 +3 Dunnolop   Michalis Marolachakis Probleme tehnice 43 1 1:35.017    18.211s
34. -13 -13 Michelini   Vitor Novo Probleme tehnice 32 1 1:28.909    15.850s
35. -2 -2 Michelini   Filipe Miguel Probleme tehnice 23 1 1:29.409    26.461s
36. -29 -29 Michelini   Tomasz Kaminski Accident la start 0 0 -    -